sensor_id;sensor_type;location;lat;lon;timestamp;P1;durP1;ratioP1;P2;durP2;ratioP2
22557;SDS011;11445;53.816;8.902;2023-11-21T00:02:17;15.32;;;9.07;;
22557;SDS011;11445;53.816;8.902;2023-11-21T00:04:44;18.52;;;9.48;;
22557;SDS011;11445;53.816;8.902;2023-11-21T00:07:12;20.90;;;10.60;;
22557;SDS011;11445;53.816;8.902;2023-11-21T00:09:39;39.50;;;14.77;;
22557;SDS011;11445;53.816;8.902;2023-11-21T00:12:06;25.00;;;13.32;;
22557;SDS011;11445;53.816;8.902;2023-11-21T00:14:35;27.77;;;13.45;;
22557;SDS011;11445;53.816;8.902;2023-11-21T00:17:02;20.27;;;11.65;;
22557;SDS011;11445;53.816;8.902;2023-11-21T00:19:30;27.73;;;12.98;;
22557;SDS011;11445;53.816;8.902;2023-11-21T00:21:58;29.25;;;14.43;;
22557;SDS011;11445;53.816;8.902;2023-11-21T00:24:25;27.52;;;14.38;;
22557;SDS011;11445;53.816;8.902;2023-11-21T00:26:51;28.83;;;14.43;;
22557;SDS011;11445;53.816;8.902;2023-11-21T00:29:18;23.77;;;13.20;;
22557;SDS011;11445;53.816;8.902;2023-11-21T00:31:44;18.73;;;11.35;;
22557;SDS011;11445;53.816;8.902;2023-11-21T00:34:11;18.60;;;10.52;;
22557;SDS011;11445;53.816;8.902;2023-11-21T00:36:40;21.88;;;9.38;;
22557;SDS011;11445;53.816;8.902;2023-11-21T00:39:06;18.27;;;8.60;;
22557;SDS011;11445;53.816;8.902;2023-11-21T00:41:33;18.38;;;9.43;;
22557;SDS011;11445;53.816;8.902;2023-11-21T00:44:01;21.58;;;10.13;;
22557;SDS011;11445;53.816;8.902;2023-11-21T00:46:28;18.35;;;9.25;;
22557;SDS011;11445;53.816;8.902;2023-11-21T00:48:55;19.35;;;8.90;;
22557;SDS011;11445;53.816;8.902;2023-11-21T00:51:22;15.02;;;9.35;;
22557;SDS011;11445;53.816;8.902;2023-11-21T00:53:51;17.23;;;8.85;;
22557;SDS011;11445;53.816;8.902;2023-11-21T00:56:18;17.20;;;9.63;;
22557;SDS011;11445;53.816;8.902;2023-11-21T00:58:45;19.40;;;8.82;;
22557;SDS011;11445;53.816;8.902;2023-11-21T01:01:14;17.48;;;9.43;;
22557;SDS011;11445;53.816;8.902;2023-11-21T01:03:41;15.95;;;9.07;;
22557;SDS011;11445;53.816;8.902;2023-11-21T01:06:08;20.05;;;9.75;;
22557;SDS011;11445;53.816;8.902;2023-11-21T01:08:35;15.30;;;8.82;;
22557;SDS011;11445;53.816;8.902;2023-11-21T01:11:04;13.65;;;8.45;;
22557;SDS011;11445;53.816;8.902;2023-11-21T01:13:33;18.10;;;9.88;;
22557;SDS011;11445;53.816;8.902;2023-11-21T01:16:01;18.00;;;10.02;;
22557;SDS011;11445;53.816;8.902;2023-11-21T01:18:28;18.05;;;9.40;;
22557;SDS011;11445;53.816;8.902;2023-11-21T01:20:55;24.42;;;10.43;;
22557;SDS011;11445;53.816;8.902;2023-11-21T01:23:22;15.55;;;9.32;;
22557;SDS011;11445;53.816;8.902;2023-11-21T01:25:49;21.77;;;10.63;;
22557;SDS011;11445;53.816;8.902;2023-11-21T01:28:18;20.00;;;10.10;;
22557;SDS011;11445;53.816;8.902;2023-11-21T01:30:45;17.63;;;8.95;;
22557;SDS011;11445;53.816;8.902;2023-11-21T01:33:12;22.65;;;10.30;;
22557;SDS011;11445;53.816;8.902;2023-11-21T01:35:40;18.02;;;8.23;;
22557;SDS011;11445;53.816;8.902;2023-11-21T01:38:07;16.27;;;9.23;;
22557;SDS011;11445;53.816;8.902;2023-11-21T01:40:34;15.38;;;8.68;;
22557;SDS011;11445;53.816;8.902;2023-11-21T01:43:01;13.90;;;8.85;;
22557;SDS011;11445;53.816;8.902;2023-11-21T01:45:30;16.63;;;9.52;;
22557;SDS011;11445;53.816;8.902;2023-11-21T01:47:58;15.57;;;9.57;;
22557;SDS011;11445;53.816;8.902;2023-11-21T01:50:26;12.43;;;8.73;;
22557;SDS011;11445;53.816;8.902;2023-11-21T01:52:54;14.05;;;9.95;;
22557;SDS011;11445;53.816;8.902;2023-11-21T01:55:21;14.52;;;9.48;;
22557;SDS011;11445;53.816;8.902;2023-11-21T01:57:48;18.25;;;9.50;;
22557;SDS011;11445;53.816;8.902;2023-11-21T02:00:16;17.70;;;9.60;;
22557;SDS011;11445;53.816;8.902;2023-11-21T02:02:45;15.63;;;10.25;;
22557;SDS011;11445;53.816;8.902;2023-11-21T02:05:13;15.27;;;9.80;;
22557;SDS011;11445;53.816;8.902;2023-11-21T02:07:43;18.08;;;10.27;;
22557;SDS011;11445;53.816;8.902;2023-11-21T02:10:12;13.93;;;10.15;;
22557;SDS011;11445;53.816;8.902;2023-11-21T02:12:40;16.45;;;10.15;;
22557;SDS011;11445;53.816;8.902;2023-11-21T02:15:08;17.90;;;10.15;;
22557;SDS011;11445;53.816;8.902;2023-11-21T02:17:40;14.55;;;9.13;;
22557;SDS011;11445;53.816;8.902;2023-11-21T02:20:10;13.38;;;8.88;;
22557;SDS011;11445;53.816;8.902;2023-11-21T02:22:40;15.63;;;9.75;;
22557;SDS011;11445;53.816;8.902;2023-11-21T02:25:09;14.20;;;9.50;;
22557;SDS011;11445;53.816;8.902;2023-11-21T02:27:36;15.13;;;10.43;;
22557;SDS011;11445;53.816;8.902;2023-11-21T02:30:03;15.48;;;10.20;;
22557;SDS011;11445;53.816;8.902;2023-11-21T02:32:32;20.10;;;11.75;;
22557;SDS011;11445;53.816;8.902;2023-11-21T02:34:59;19.55;;;12.25;;
22557;SDS011;11445;53.816;8.902;2023-11-21T02:37:27;16.05;;;11.00;;
22557;SDS011;11445;53.816;8.902;2023-11-21T02:39:54;20.35;;;11.10;;
22557;SDS011;11445;53.816;8.902;2023-11-21T02:42:22;17.38;;;11.85;;
22557;SDS011;11445;53.816;8.902;2023-11-21T02:44:49;22.83;;;11.68;;
22557;SDS011;11445;53.816;8.902;2023-11-21T02:47:16;18.48;;;11.40;;
22557;SDS011;11445;53.816;8.902;2023-11-21T02:49:42;20.48;;;11.15;;
22557;SDS011;11445;53.816;8.902;2023-11-21T02:52:09;16.35;;;10.55;;
22557;SDS011;11445;53.816;8.902;2023-11-21T02:54:36;18.02;;;10.55;;
22557;SDS011;11445;53.816;8.902;2023-11-21T02:57:03;18.23;;;11.07;;
22557;SDS011;11445;53.816;8.902;2023-11-21T02:59:32;18.35;;;10.40;;
22557;SDS011;11445;53.816;8.902;2023-11-21T03:01:59;14.60;;;10.45;;
22557;SDS011;11445;53.816;8.902;2023-11-21T03:04:26;16.40;;;10.63;;
22557;SDS011;11445;53.816;8.902;2023-11-21T03:06:53;19.58;;;11.10;;
22557;SDS011;11445;53.816;8.902;2023-11-21T03:09:20;16.25;;;10.70;;
22557;SDS011;11445;53.816;8.902;2023-11-21T03:11:47;19.98;;;11.07;;
22557;SDS011;11445;53.816;8.902;2023-11-21T03:14:14;18.90;;;11.68;;
22557;SDS011;11445;53.816;8.902;2023-11-21T03:16:42;17.38;;;11.45;;
22557;SDS011;11445;53.816;8.902;2023-11-21T03:19:10;18.63;;;10.65;;
22557;SDS011;11445;53.816;8.902;2023-11-21T03:21:37;17.58;;;10.80;;
22557;SDS011;11445;53.816;8.902;2023-11-21T03:24:04;19.80;;;10.88;;
22557;SDS011;11445;53.816;8.902;2023-11-21T03:26:32;16.80;;;10.73;;
22557;SDS011;11445;53.816;8.902;2023-11-21T03:28:59;19.23;;;10.75;;
22557;SDS011;11445;53.816;8.902;2023-11-21T03:31:26;14.48;;;9.43;;
22557;SDS011;11445;53.816;8.902;2023-11-21T03:33:54;24.30;;;11.23;;
22557;SDS011;11445;53.816;8.902;2023-11-21T03:36:20;17.38;;;10.93;;
22557;SDS011;11445;53.816;8.902;2023-11-21T03:38:50;18.00;;;11.20;;
22557;SDS011;11445;53.816;8.902;2023-11-21T03:41:17;16.73;;;11.13;;
22557;SDS011;11445;53.816;8.902;2023-11-21T03:43:43;20.15;;;10.98;;
22557;SDS011;11445;53.816;8.902;2023-11-21T03:46:10;19.60;;;11.27;;
22557;SDS011;11445;53.816;8.902;2023-11-21T03:48:37;16.77;;;10.50;;
22557;SDS011;11445;53.816;8.902;2023-11-21T03:51:06;23.05;;;10.95;;
22557;SDS011;11445;53.816;8.902;2023-11-21T03:53:33;16.08;;;10.70;;
22557;SDS011;11445;53.816;8.902;2023-11-21T03:56:01;16.58;;;10.77;;
22557;SDS011;11445;53.816;8.902;2023-11-21T03:58:28;18.30;;;10.95;;
22557;SDS011;11445;53.816;8.902;2023-11-21T04:00:55;22.13;;;10.82;;
22557;SDS011;11445;53.816;8.902;2023-11-21T04:03:22;18.80;;;11.13;;
22557;SDS011;11445;53.816;8.902;2023-11-21T04:05:49;16.98;;;10.48;;
22557;SDS011;11445;53.816;8.902;2023-11-21T04:08:17;19.33;;;10.80;;
22557;SDS011;11445;53.816;8.902;2023-11-21T04:10:44;17.25;;;9.68;;
22557;SDS011;11445;53.816;8.902;2023-11-21T04:13:10;17.52;;;10.55;;
22557;SDS011;11445;53.816;8.902;2023-11-21T04:15:37;17.95;;;10.60;;
22557;SDS011;11445;53.816;8.902;2023-11-21T04:18:04;15.35;;;10.32;;
22557;SDS011;11445;53.816;8.902;2023-11-21T04:20:31;17.10;;;10.20;;
22557;SDS011;11445;53.816;8.902;2023-11-21T04:22:58;14.95;;;10.55;;
22557;SDS011;11445;53.816;8.902;2023-11-21T04:25:26;15.38;;;10.23;;
22557;SDS011;11445;53.816;8.902;2023-11-21T04:27:53;15.93;;;10.30;;
22557;SDS011;11445;53.816;8.902;2023-11-21T04:30:20;15.48;;;10.35;;
22557;SDS011;11445;53.816;8.902;2023-11-21T04:32:47;16.00;;;9.85;;
22557;SDS011;11445;53.816;8.902;2023-11-21T04:35:13;19.30;;;10.45;;
22557;SDS011;11445;53.816;8.902;2023-11-21T04:37:40;17.20;;;10.82;;
22557;SDS011;11445;53.816;8.902;2023-11-21T04:40:07;16.30;;;10.13;;
22557;SDS011;11445;53.816;8.902;2023-11-21T04:42:36;16.90;;;10.68;;
22557;SDS011;11445;53.816;8.902;2023-11-21T04:45:03;16.95;;;10.90;;
22557;SDS011;11445;53.816;8.902;2023-11-21T04:47:33;16.58;;;10.00;;
22557;SDS011;11445;53.816;8.902;2023-11-21T04:50:00;16.45;;;10.55;;
22557;SDS011;11445;53.816;8.902;2023-11-21T04:52:28;15.20;;;10.35;;
22557;SDS011;11445;53.816;8.902;2023-11-21T04:54:55;18.52;;;10.48;;
22557;SDS011;11445;53.816;8.902;2023-11-21T04:57:23;16.63;;;10.38;;
22557;SDS011;11445;53.816;8.902;2023-11-21T04:59:51;19.73;;;11.30;;
22557;SDS011;11445;53.816;8.902;2023-11-21T05:02:18;17.83;;;10.32;;
22557;SDS011;11445;53.816;8.902;2023-11-21T05:04:46;19.02;;;11.13;;
22557;SDS011;11445;53.816;8.902;2023-11-21T05:07:13;19.05;;;10.98;;
22557;SDS011;11445;53.816;8.902;2023-11-21T05:09:41;20.92;;;11.55;;
22557;SDS011;11445;53.816;8.902;2023-11-21T05:12:11;20.48;;;11.38;;
22557;SDS011;11445;53.816;8.902;2023-11-21T05:14:38;22.10;;;11.10;;
22557;SDS011;11445;53.816;8.902;2023-11-21T05:17:06;18.80;;;11.27;;
22557;SDS011;11445;53.816;8.902;2023-11-21T05:19:33;21.55;;;11.40;;
22557;SDS011;11445;53.816;8.902;2023-11-21T05:22:01;22.42;;;11.50;;
22557;SDS011;11445;53.816;8.902;2023-11-21T05:24:28;17.58;;;11.15;;
22557;SDS011;11445;53.816;8.902;2023-11-21T05:26:54;19.75;;;11.07;;
22557;SDS011;11445;53.816;8.902;2023-11-21T05:29:22;22.23;;;11.45;;
22557;SDS011;11445;53.816;8.902;2023-11-21T05:31:50;18.83;;;11.50;;
22557;SDS011;11445;53.816;8.902;2023-11-21T05:34:19;16.85;;;11.40;;
22557;SDS011;11445;53.816;8.902;2023-11-21T05:36:48;20.52;;;11.60;;
22557;SDS011;11445;53.816;8.902;2023-11-21T05:39:15;22.13;;;11.07;;
22557;SDS011;11445;53.816;8.902;2023-11-21T05:41:43;19.80;;;11.65;;
22557;SDS011;11445;53.816;8.902;2023-11-21T05:44:10;22.20;;;10.85;;
22557;SDS011;11445;53.816;8.902;2023-11-21T05:46:39;19.40;;;12.02;;
22557;SDS011;11445;53.816;8.902;2023-11-21T05:49:08;17.23;;;10.60;;
22557;SDS011;11445;53.816;8.902;2023-11-21T05:51:36;22.70;;;12.18;;
22557;SDS011;11445;53.816;8.902;2023-11-21T05:54:03;19.02;;;11.75;;
22557;SDS011;11445;53.816;8.902;2023-11-21T05:56:30;21.58;;;11.80;;
22557;SDS011;11445;53.816;8.902;2023-11-21T05:58:57;21.70;;;11.75;;
22557;SDS011;11445;53.816;8.902;2023-11-21T06:01:24;19.13;;;12.55;;
22557;SDS011;11445;53.816;8.902;2023-11-21T06:03:53;21.58;;;12.38;;
22557;SDS011;11445;53.816;8.902;2023-11-21T06:06:20;16.98;;;8.23;;
22557;SDS011;11445;53.816;8.902;2023-11-21T06:08:49;23.13;;;13.25;;
22557;SDS011;11445;53.816;8.902;2023-11-21T06:11:15;20.48;;;12.27;;
22557;SDS011;11445;53.816;8.902;2023-11-21T06:13:42;16.63;;;11.27;;
22557;SDS011;11445;53.816;8.902;2023-11-21T06:16:09;18.27;;;11.57;;
22557;SDS011;11445;53.816;8.902;2023-11-21T06:18:38;16.92;;;10.60;;
22557;SDS011;11445;53.816;8.902;2023-11-21T06:21:05;17.88;;;10.98;;
22557;SDS011;11445;53.816;8.902;2023-11-21T06:23:35;16.83;;;10.80;;
22557;SDS011;11445;53.816;8.902;2023-11-21T06:26:04;21.42;;;11.98;;
22557;SDS011;11445;53.816;8.902;2023-11-21T06:28:30;19.52;;;11.52;;
22557;SDS011;11445;53.816;8.902;2023-11-21T06:30:57;22.83;;;12.68;;
22557;SDS011;11445;53.816;8.902;2023-11-21T06:33:30;23.02;;;12.98;;
22557;SDS011;11445;53.816;8.902;2023-11-21T06:35:56;25.08;;;13.68;;
22557;SDS011;11445;53.816;8.902;2023-11-21T06:38:24;25.23;;;13.77;;
22557;SDS011;11445;53.816;8.902;2023-11-21T06:40:55;25.60;;;13.63;;
22557;SDS011;11445;53.816;8.902;2023-11-21T06:43:23;20.27;;;12.00;;
22557;SDS011;11445;53.816;8.902;2023-11-21T06:45:50;21.73;;;12.13;;
22557;SDS011;11445;53.816;8.902;2023-11-21T06:48:17;22.20;;;12.25;;
22557;SDS011;11445;53.816;8.902;2023-11-21T06:50:43;21.35;;;12.70;;
22557;SDS011;11445;53.816;8.902;2023-11-21T06:53:11;17.85;;;12.05;;
22557;SDS011;11445;53.816;8.902;2023-11-21T06:55:38;20.92;;;12.98;;
22557;SDS011;11445;53.816;8.902;2023-11-21T06:58:05;22.70;;;13.65;;
22557;SDS011;11445;53.816;8.902;2023-11-21T07:00:33;23.17;;;13.45;;
22557;SDS011;11445;53.816;8.902;2023-11-21T07:03:00;22.23;;;12.93;;
22557;SDS011;11445;53.816;8.902;2023-11-21T07:05:27;18.15;;;11.88;;
22557;SDS011;11445;53.816;8.902;2023-11-21T07:07:54;20.27;;;12.35;;
22557;SDS011;11445;53.816;8.902;2023-11-21T07:10:21;21.55;;;12.50;;
22557;SDS011;11445;53.816;8.902;2023-11-21T07:12:47;22.00;;;12.68;;
22557;SDS011;11445;53.816;8.902;2023-11-21T07:15:16;21.38;;;12.07;;
22557;SDS011;11445;53.816;8.902;2023-11-21T07:17:45;20.35;;;10.60;;
22557;SDS011;11445;53.816;8.902;2023-11-21T07:20:13;18.25;;;10.15;;
22557;SDS011;11445;53.816;8.902;2023-11-21T07:22:42;18.70;;;11.80;;
22557;SDS011;11445;53.816;8.902;2023-11-21T07:25:09;17.80;;;10.25;;
22557;SDS011;11445;53.816;8.902;2023-11-21T07:27:36;19.30;;;11.02;;
22557;SDS011;11445;53.816;8.902;2023-11-21T07:30:03;17.30;;;10.38;;
22557;SDS011;11445;53.816;8.902;2023-11-21T07:32:31;16.08;;;10.60;;
22557;SDS011;11445;53.816;8.902;2023-11-21T07:35:00;15.25;;;9.23;;
22557;SDS011;11445;53.816;8.902;2023-11-21T07:37:27;17.60;;;9.70;;
22557;SDS011;11445;53.816;8.902;2023-11-21T07:39:54;19.00;;;9.07;;
22557;SDS011;11445;53.816;8.902;2023-11-21T07:42:21;12.00;;;8.73;;
22557;SDS011;11445;53.816;8.902;2023-11-21T07:44:49;12.88;;;8.48;;
22557;SDS011;11445;53.816;8.902;2023-11-21T07:47:17;13.55;;;7.82;;
22557;SDS011;11445;53.816;8.902;2023-11-21T07:49:43;12.32;;;7.45;;
22557;SDS011;11445;53.816;8.902;2023-11-21T07:52:13;10.93;;;7.95;;
22557;SDS011;11445;53.816;8.902;2023-11-21T07:54:41;13.15;;;6.93;;
22557;SDS011;11445;53.816;8.902;2023-11-21T07:57:08;10.50;;;6.55;;
22557;SDS011;11445;53.816;8.902;2023-11-21T07:59:38;11.65;;;7.57;;
22557;SDS011;11445;53.816;8.902;2023-11-21T08:02:05;10.00;;;7.13;;
22557;SDS011;11445;53.816;8.902;2023-11-21T08:04:32;14.48;;;8.00;;
22557;SDS011;11445;53.816;8.902;2023-11-21T08:07:00;14.88;;;7.45;;
22557;SDS011;11445;53.816;8.902;2023-11-21T08:09:30;13.60;;;8.10;;
22557;SDS011;11445;53.816;8.902;2023-11-21T08:11:58;15.77;;;7.30;;
22557;SDS011;11445;53.816;8.902;2023-11-21T08:14:25;15.60;;;7.50;;
22557;SDS011;11445;53.816;8.902;2023-11-21T08:16:52;12.20;;;7.55;;
22557;SDS011;11445;53.816;8.902;2023-11-21T08:19:22;13.43;;;7.20;;
22557;SDS011;11445;53.816;8.902;2023-11-21T08:21:50;11.50;;;6.90;;
22557;SDS011;11445;53.816;8.902;2023-11-21T08:24:19;12.55;;;7.30;;
22557;SDS011;11445;53.816;8.902;2023-11-21T08:26:48;12.70;;;7.15;;
22557;SDS011;11445;53.816;8.902;2023-11-21T08:29:16;10.88;;;7.00;;
22557;SDS011;11445;53.816;8.902;2023-11-21T08:31:43;12.90;;;7.03;;
22557;SDS011;11445;53.816;8.902;2023-11-21T08:34:11;12.45;;;7.18;;
22557;SDS011;11445;53.816;8.902;2023-11-21T08:36:41;13.02;;;6.65;;
22557;SDS011;11445;53.816;8.902;2023-11-21T08:39:08;11.55;;;7.32;;
22557;SDS011;11445;53.816;8.902;2023-11-21T08:41:35;12.82;;;6.50;;
22557;SDS011;11445;53.816;8.902;2023-11-21T08:44:04;10.43;;;7.15;;
22557;SDS011;11445;53.816;8.902;2023-11-21T08:46:32;20.90;;;6.43;;
22557;SDS011;11445;53.816;8.902;2023-11-21T08:49:00;11.30;;;7.10;;
22557;SDS011;11445;53.816;8.902;2023-11-21T08:51:27;13.07;;;7.32;;
22557;SDS011;11445;53.816;8.902;2023-11-21T08:53:54;12.75;;;6.88;;
22557;SDS011;11445;53.816;8.902;2023-11-21T08:56:24;10.85;;;7.50;;
22557;SDS011;11445;53.816;8.902;2023-11-21T08:58:51;12.27;;;7.13;;
22557;SDS011;11445;53.816;8.902;2023-11-21T09:01:19;10.07;;;6.13;;
22557;SDS011;11445;53.816;8.902;2023-11-21T09:03:46;9.77;;;6.53;;
22557;SDS011;11445;53.816;8.902;2023-11-21T09:06:13;12.02;;;5.95;;
22557;SDS011;11445;53.816;8.902;2023-11-21T09:08:39;11.20;;;6.05;;
22557;SDS011;11445;53.816;8.902;2023-11-21T09:11:07;9.00;;;6.28;;
22557;SDS011;11445;53.816;8.902;2023-11-21T09:13:34;10.15;;;6.13;;
22557;SDS011;11445;53.816;8.902;2023-11-21T09:16:01;10.43;;;5.80;;
22557;SDS011;11445;53.816;8.902;2023-11-21T09:18:29;8.98;;;5.85;;
22557;SDS011;11445;53.816;8.902;2023-11-21T09:20:56;10.32;;;5.78;;
22557;SDS011;11445;53.816;8.902;2023-11-21T09:23:23;9.48;;;5.55;;
22557;SDS011;11445;53.816;8.902;2023-11-21T09:25:50;18.92;;;5.50;;
22557;SDS011;11445;53.816;8.902;2023-11-21T09:28:21;8.75;;;5.25;;
22557;SDS011;11445;53.816;8.902;2023-11-21T09:30:48;8.32;;;5.35;;
22557;SDS011;11445;53.816;8.902;2023-11-21T09:33:15;13.75;;;6.05;;
22557;SDS011;11445;53.816;8.902;2023-11-21T09:35:43;10.90;;;5.28;;
22557;SDS011;11445;53.816;8.902;2023-11-21T09:38:10;8.50;;;5.25;;
22557;SDS011;11445;53.816;8.902;2023-11-21T09:40:37;8.95;;;5.30;;
22557;SDS011;11445;53.816;8.902;2023-11-21T09:43:05;8.93;;;5.00;;
22557;SDS011;11445;53.816;8.902;2023-11-21T09:45:39;9.93;;;5.47;;
22557;SDS011;11445;53.816;8.902;2023-11-21T09:48:06;8.88;;;5.57;;
22557;SDS011;11445;53.816;8.902;2023-11-21T09:50:34;9.15;;;5.45;;
22557;SDS011;11445;53.816;8.902;2023-11-21T09:53:07;8.02;;;4.60;;
22557;SDS011;11445;53.816;8.902;2023-11-21T09:55:40;11.10;;;4.90;;
22557;SDS011;11445;53.816;8.902;2023-11-21T09:58:09;9.20;;;5.15;;
22557;SDS011;11445;53.816;8.902;2023-11-21T10:00:38;6.63;;;4.90;;
22557;SDS011;11445;53.816;8.902;2023-11-21T10:03:07;7.28;;;5.03;;
22557;SDS011;11445;53.816;8.902;2023-11-21T10:05:35;8.60;;;4.78;;
22557;SDS011;11445;53.816;8.902;2023-11-21T10:08:02;5.90;;;5.25;;
22557;SDS011;11445;53.816;8.902;2023-11-21T10:10:33;7.70;;;5.00;;
22557;SDS011;11445;53.816;8.902;2023-11-21T10:13:02;7.88;;;4.57;;
22557;SDS011;11445;53.816;8.902;2023-11-21T10:15:31;6.80;;;4.95;;
22557;SDS011;11445;53.816;8.902;2023-11-21T10:18:01;6.93;;;4.97;;
22557;SDS011;11445;53.816;8.902;2023-11-21T10:20:29;8.57;;;5.22;;
22557;SDS011;11445;53.816;8.902;2023-11-21T10:22:59;6.20;;;4.47;;
22557;SDS011;11445;53.816;8.902;2023-11-21T10:25:28;6.97;;;4.80;;
22557;SDS011;11445;53.816;8.902;2023-11-21T10:27:57;7.03;;;5.13;;
22557;SDS011;11445;53.816;8.902;2023-11-21T10:30:27;10.20;;;4.68;;
22557;SDS011;11445;53.816;8.902;2023-11-21T10:32:58;7.72;;;5.72;;
22557;SDS011;11445;53.816;8.902;2023-11-21T10:35:38;7.47;;;5.55;;
22557;SDS011;11445;53.816;8.902;2023-11-21T10:38:06;8.80;;;5.22;;
22557;SDS011;11445;53.816;8.902;2023-11-21T10:40:38;9.68;;;5.38;;
22557;SDS011;11445;53.816;8.902;2023-11-21T10:43:07;9.95;;;5.53;;
22557;SDS011;11445;53.816;8.902;2023-11-21T10:45:34;6.63;;;4.95;;
22557;SDS011;11445;53.816;8.902;2023-11-21T10:48:04;7.45;;;5.50;;
22557;SDS011;11445;53.816;8.902;2023-11-21T10:50:32;11.77;;;5.28;;
22557;SDS011;11445;53.816;8.902;2023-11-21T10:53:01;9.43;;;5.40;;
22557;SDS011;11445;53.816;8.902;2023-11-21T10:55:28;8.77;;;4.97;;
22557;SDS011;11445;53.816;8.902;2023-11-21T10:57:58;10.13;;;5.43;;
22557;SDS011;11445;53.816;8.902;2023-11-21T11:00:27;8.02;;;5.15;;
22557;SDS011;11445;53.816;8.902;2023-11-21T11:02:54;10.48;;;5.45;;
22557;SDS011;11445;53.816;8.902;2023-11-21T11:05:22;8.55;;;5.45;;
22557;SDS011;11445;53.816;8.902;2023-11-21T11:07:51;12.18;;;5.13;;
22557;SDS011;11445;53.816;8.902;2023-11-21T11:10:24;6.90;;;5.50;;
22557;SDS011;11445;53.816;8.902;2023-11-21T11:12:52;7.47;;;5.80;;
22557;SDS011;11445;53.816;8.902;2023-11-21T11:15:21;8.57;;;5.35;;
22557;SDS011;11445;53.816;8.902;2023-11-21T11:17:49;8.85;;;5.32;;
22557;SDS011;11445;53.816;8.902;2023-11-21T11:20:16;7.28;;;5.38;;
22557;SDS011;11445;53.816;8.902;2023-11-21T11:22:48;7.22;;;5.07;;
22557;SDS011;11445;53.816;8.902;2023-11-21T11:25:30;6.57;;;5.18;;
22557;SDS011;11445;53.816;8.902;2023-11-21T11:28:14;8.60;;;5.03;;
22557;SDS011;11445;53.816;8.902;2023-11-21T11:30:50;5.82;;;4.53;;
22557;SDS011;11445;53.816;8.902;2023-11-21T11:33:30;9.85;;;4.55;;
22557;SDS011;11445;53.816;8.902;2023-11-21T11:36:04;8.23;;;4.43;;
22557;SDS011;11445;53.816;8.902;2023-11-21T11:38:34;6.80;;;4.00;;
22557;SDS011;11445;53.816;8.902;2023-11-21T11:41:02;5.82;;;4.45;;
22557;SDS011;11445;53.816;8.902;2023-11-21T11:43:30;6.25;;;4.40;;
22557;SDS011;11445;53.816;8.902;2023-11-21T11:45:59;13.10;;;4.65;;
22557;SDS011;11445;53.816;8.902;2023-11-21T11:48:29;8.57;;;4.28;;
22557;SDS011;11445;53.816;8.902;2023-11-21T11:51:01;5.80;;;4.22;;
22557;SDS011;11445;53.816;8.902;2023-11-21T11:53:32;7.15;;;4.55;;
22557;SDS011;11445;53.816;8.902;2023-11-21T11:58:51;8.07;;;4.15;;
22557;SDS011;11445;53.816;8.902;2023-11-21T12:01:20;5.50;;;4.25;;
22557;SDS011;11445;53.816;8.902;2023-11-21T12:07:00;6.55;;;4.68;;
22557;SDS011;11445;53.816;8.902;2023-11-21T12:09:28;5.70;;;4.05;;
22557;SDS011;11445;53.816;8.902;2023-11-21T12:11:57;6.03;;;4.45;;
22557;SDS011;11445;53.816;8.902;2023-11-21T12:14:25;7.43;;;4.57;;
22557;SDS011;11445;53.816;8.902;2023-11-21T12:16:54;5.72;;;4.53;;
22557;SDS011;11445;53.816;8.902;2023-11-21T12:19:21;8.52;;;4.60;;
22557;SDS011;11445;53.816;8.902;2023-11-21T12:21:48;8.10;;;4.95;;
22557;SDS011;11445;53.816;8.902;2023-11-21T12:24:15;9.27;;;4.80;;
22557;SDS011;11445;53.816;8.902;2023-11-21T12:26:43;6.38;;;4.97;;
22557;SDS011;11445;53.816;8.902;2023-11-21T12:29:10;5.82;;;3.60;;
22557;SDS011;11445;53.816;8.902;2023-11-21T12:31:37;4.10;;;2.88;;
22557;SDS011;11445;53.816;8.902;2023-11-21T12:34:05;2.72;;;2.53;;
22557;SDS011;11445;53.816;8.902;2023-11-21T12:36:34;4.63;;;3.10;;
22557;SDS011;11445;53.816;8.902;2023-11-21T12:39:01;5.35;;;3.15;;
22557;SDS011;11445;53.816;8.902;2023-11-21T12:41:28;3.00;;;2.25;;
22557;SDS011;11445;53.816;8.902;2023-11-21T12:43:56;4.97;;;2.55;;
22557;SDS011;11445;53.816;8.902;2023-11-21T12:46:24;3.88;;;2.95;;
22557;SDS011;11445;53.816;8.902;2023-11-21T12:48:54;3.80;;;2.70;;
22557;SDS011;11445;53.816;8.902;2023-11-21T12:51:24;3.65;;;2.22;;
22557;SDS011;11445;53.816;8.902;2023-11-21T12:53:51;7.93;;;2.70;;
22557;SDS011;11445;53.816;8.902;2023-11-21T12:56:18;2.90;;;2.40;;
22557;SDS011;11445;53.816;8.902;2023-11-21T12:58:48;3.05;;;2.75;;
22557;SDS011;11445;53.816;8.902;2023-11-21T13:03:46;5.65;;;2.83;;
22557;SDS011;11445;53.816;8.902;2023-11-21T13:06:15;4.07;;;2.80;;
22557;SDS011;11445;53.816;8.902;2023-11-21T13:08:45;3.17;;;2.67;;
22557;SDS011;11445;53.816;8.902;2023-11-21T13:11:12;3.08;;;2.80;;
22557;SDS011;11445;53.816;8.902;2023-11-21T13:13:40;5.50;;;2.90;;
22557;SDS011;11445;53.816;8.902;2023-11-21T13:16:08;3.58;;;2.88;;
22557;SDS011;11445;53.816;8.902;2023-11-21T13:18:35;5.57;;;3.17;;
22557;SDS011;11445;53.816;8.902;2023-11-21T13:21:03;4.45;;;2.80;;
22557;SDS011;11445;53.816;8.902;2023-11-21T13:23:35;6.63;;;3.17;;
22557;SDS011;11445;53.816;8.902;2023-11-21T13:26:04;5.07;;;3.40;;
22557;SDS011;11445;53.816;8.902;2023-11-21T13:28:31;6.68;;;3.45;;
22557;SDS011;11445;53.816;8.902;2023-11-21T13:30:59;3.72;;;3.42;;
22557;SDS011;11445;53.816;8.902;2023-11-21T13:33:34;5.78;;;3.75;;
22557;SDS011;11445;53.816;8.902;2023-11-21T13:36:03;6.75;;;3.42;;
22557;SDS011;11445;53.816;8.902;2023-11-21T13:38:32;6.18;;;3.97;;
22557;SDS011;11445;53.816;8.902;2023-11-21T13:41:00;5.85;;;3.97;;
22557;SDS011;11445;53.816;8.902;2023-11-21T13:43:33;8.73;;;3.88;;
22557;SDS011;11445;53.816;8.902;2023-11-21T13:46:01;4.47;;;3.63;;
22557;SDS011;11445;53.816;8.902;2023-11-21T13:48:38;6.35;;;4.50;;
22557;SDS011;11445;53.816;8.902;2023-11-21T13:51:08;9.45;;;4.57;;
22557;SDS011;11445;53.816;8.902;2023-11-21T13:53:42;7.60;;;4.43;;
22557;SDS011;11445;53.816;8.902;2023-11-21T13:56:09;4.40;;;4.00;;
22557;SDS011;11445;53.816;8.902;2023-11-21T13:58:39;7.57;;;4.13;;
22557;SDS011;11445;53.816;8.902;2023-11-21T14:01:11;5.57;;;4.15;;
22557;SDS011;11445;53.816;8.902;2023-11-21T14:03:57;5.28;;;4.05;;
22557;SDS011;11445;53.816;8.902;2023-11-21T14:06:33;4.68;;;3.78;;
22557;SDS011;11445;53.816;8.902;2023-11-21T14:09:09;3.83;;;3.33;;
22557;SDS011;11445;53.816;8.902;2023-11-21T14:11:38;5.53;;;3.53;;
22557;SDS011;11445;53.816;8.902;2023-11-21T14:14:07;7.15;;;3.83;;
22557;SDS011;11445;53.816;8.902;2023-11-21T14:16:34;7.28;;;3.75;;
22557;SDS011;11445;53.816;8.902;2023-11-21T14:19:01;4.35;;;3.63;;
22557;SDS011;11445;53.816;8.902;2023-11-21T14:21:39;4.88;;;3.60;;
22557;SDS011;11445;53.816;8.902;2023-11-21T14:24:08;5.45;;;3.60;;
22557;SDS011;11445;53.816;8.902;2023-11-21T14:26:35;3.97;;;3.53;;
22557;SDS011;11445;53.816;8.902;2023-11-21T14:29:03;6.03;;;3.92;;
22557;SDS011;11445;53.816;8.902;2023-11-21T14:31:31;7.07;;;3.90;;
22557;SDS011;11445;53.816;8.902;2023-11-21T14:33:58;5.80;;;3.33;;
22557;SDS011;11445;53.816;8.902;2023-11-21T14:36:26;6.70;;;4.20;;
22557;SDS011;11445;53.816;8.902;2023-11-21T14:38:53;4.20;;;3.72;;
22557;SDS011;11445;53.816;8.902;2023-11-21T14:41:20;4.53;;;3.70;;
22557;SDS011;11445;53.816;8.902;2023-11-21T14:43:47;4.05;;;3.45;;
22557;SDS011;11445;53.816;8.902;2023-11-21T14:46:15;6.20;;;3.88;;
22557;SDS011;11445;53.816;8.902;2023-11-21T14:48:46;5.80;;;3.70;;